Time;durP1;ratioP1;P1;durP2;ratioP2;P2;SDS_P1;SDS_P2;PMS_P1;PMS_P2;Temp;Humidity;BMP_temperature;BMP_pressure;BME280_temperature;BME280_humidity;BME280_pressure;Samples;Min_cycle;Max_cycle;Signal;HPM_P1;HPM_P2
2022/07/29 00:00:15;;;;;;;4.40;1.20;;;16.80;99.90;;;;;;12415461;28;20060;-35
2022/07/29 00:06:17;;;;;;;5.97;1.35;;;16.80;99.90;;;;;;12432324;28;20140;-35
2022/07/29 00:12:21;;;;;;;5.10;1.10;;;16.80;99.90;;;;;;12427765;28;20053;-36
2022/07/29 00:18:26;;;;;;;3.83;1.38;;;16.90;99.90;;;;;;12420791;28;20112;-35
2022/07/29 00:24:30;;;;;;;4.30;0.93;;;16.90;99.90;;;;;;12441677;28;20529;-35
2022/07/29 00:30:32;;;;;;;4.28;0.90;;;17.00;99.90;;;;;;12444748;28;20045;-39
2022/07/29 00:36:34;;;;;;;4.32;1.02;;;17.10;99.90;;;;;;12412342;28;20077;-35
2022/07/29 00:42:47;;;;;;;5.13;1.00;;;17.30;99.90;;;;;;12439964;28;20198;-39
2022/07/29 00:48:49;;;;;;;5.22;0.77;;;17.30;99.90;;;;;;12416601;28;20116;-39
2022/07/29 00:54:51;;;;;;;4.18;1.10;;;17.20;99.90;;;;;;12435285;28;20058;-40
2022/07/29 01:00:54;;;;;;;6.18;1.10;;;17.10;99.90;;;;;;12430102;28;20058;-39
2022/07/29 01:06:56;;;;;;;5.75;1.10;;;16.90;99.90;;;;;;12431990;28;20047;-35
2022/07/29 01:13:01;;;;;;;4.03;0.93;;;16.90;99.90;;;;;;12430776;28;20089;-35
2022/07/29 01:19:47;;;;;;;5.60;0.93;;;17.00;99.90;;;;;;12412549;28;20108;-35
2022/07/29 01:26:01;;;;;;;9.07;1.33;;;17.00;99.90;;;;;;12422201;28;20452;-40
2022/07/29 01:32:27;;;;;;;7.43;1.00;;;17.10;99.90;;;;;;12435994;28;20038;-38
2022/07/29 01:38:30;;;;;;;4.82;1.10;;;17.00;99.90;;;;;;12406993;28;20054;-35
2022/07/29 01:44:37;;;;;;;4.80;1.13;;;17.00;99.90;;;;;;12402930;28;20517;-35
2022/07/29 01:50:50;;;;;;;3.28;1.30;;;17.10;99.90;;;;;;12411257;28;20062;-35
2022/07/29 01:56:56;;;;;;;3.75;1.00;;;17.10;99.90;;;;;;12414308;28;20526;-38
2022/07/29 02:03:02;;;;;;;7.18;1.00;;;17.00;99.90;;;;;;12427370;28;20456;-35
2022/07/29 02:09:06;;;;;;;5.20;0.93;;;17.10;99.90;;;;;;12426888;28;20380;-39
2022/07/29 02:15:11;;;;;;;2.38;0.90;;;17.30;99.90;;;;;;12427751;28;20123;-35
2022/07/29 02:21:22;;;;;;;8.38;1.38;;;17.30;99.90;;;;;;12427979;28;20414;-38
2022/07/29 02:27:27;;;;;;;4.75;0.85;;;17.10;99.90;;;;;;12416807;28;20453;-35
2022/07/29 02:33:31;;;;;;;5.15;1.10;;;16.90;99.90;;;;;;12422051;28;20553;-39
2022/07/29 02:39:34;;;;;;;4.20;1.15;;;16.80;99.90;;;;;;12443846;28;20468;-39
2022/07/29 02:45:36;;;;;;;5.30;0.97;;;16.90;99.90;;;;;;12434569;28;20041;-35
2022/07/29 02:52:19;;;;;;;4.35;1.13;;;16.80;99.90;;;;;;12409548;28;20120;-39
2022/07/29 02:58:28;;;;;;;5.20;0.98;;;16.90;99.90;;;;;;12436504;28;20132;-40
2022/07/29 03:04:32;;;;;;;5.70;1.20;;;16.90;99.90;;;;;;12426351;28;20111;-39
2022/07/29 03:10:36;;;;;;;2.97;0.90;;;16.90;99.90;;;;;;12435573;28;20128;-35
2022/07/29 03:16:39;;;;;;;3.05;0.90;;;17.00;99.90;;;;;;12440424;28;20077;-40
2022/07/29 03:22:46;;;;;;;4.72;1.30;;;17.10;99.90;;;;;;12420387;28;20470;-39
2022/07/29 03:28:48;;;;;;;3.20;1.20;;;17.20;99.90;;;;;;12440913;28;20510;-35
2022/07/29 03:34:50;;;;;;;3.10;0.82;;;17.00;99.90;;;;;;12421957;28;20185;-35
2022/07/29 03:40:55;;;;;;;3.42;1.20;;;16.90;99.90;;;;;;12427074;28;20112;-35
2022/07/29 03:47:00;;;;;;;4.43;0.90;;;16.80;99.90;;;;;;12418826;28;20050;-35
2022/07/29 03:53:03;;;;;;;3.60;1.42;;;16.70;99.90;;;;;;12428350;28;20448;-40
2022/07/29 03:59:05;;;;;;;4.03;1.00;;;16.80;99.90;;;;;;12428131;28;20090;-35
2022/07/29 04:05:12;;;;;;;4.57;1.30;;;16.90;99.90;;;;;;12435578;28;20046;-35
2022/07/29 04:11:14;;;;;;;4.13;1.05;;;16.90;99.90;;;;;;12405343;28;20055;-38
2022/07/29 04:17:16;;;;;;;3.08;1.00;;;16.90;99.90;;;;;;12414373;28;20054;-35
2022/07/29 04:23:18;;;;;;;5.53;1.30;;;17.00;99.90;;;;;;12426426;28;20050;-35
2022/07/29 04:29:20;;;;;;;4.15;1.08;;;17.10;99.90;;;;;;12433257;28;20100;-39
2022/07/29 04:35:22;;;;;;;4.10;1.08;;;17.00;99.90;;;;;;12429359;28;20632;-39
2022/07/29 04:41:24;;;;;;;6.15;1.27;;;17.00;99.90;;;;;;12409749;28;20085;-35
2022/07/29 04:47:34;;;;;;;5.43;1.27;;;16.90;99.90;;;;;;12420040;28;20081;-39
2022/07/29 04:53:35;;;;;;;3.63;1.05;;;16.90;99.90;;;;;;12443863;28;20568;-35
2022/07/29 04:59:37;;;;;;;2.92;1.00;;;16.90;99.90;;;;;;12423490;28;20140;-38
2022/07/29 05:05:40;;;;;;;3.88;1.10;;;16.80;99.90;;;;;;12426021;28;20494;-38
2022/07/29 05:11:42;;;;;;;5.57;1.10;;;16.90;99.90;;;;;;12405640;28;20085;-35
2022/07/29 05:17:44;;;;;;;4.53;1.13;;;16.80;99.90;;;;;;12436438;28;20545;-35
2022/07/29 05:23:46;;;;;;;5.93;1.30;;;16.70;99.90;;;;;;12420358;28;20082;-40
2022/07/29 05:29:48;;;;;;;7.03;1.20;;;16.80;99.90;;;;;;12423896;28;20709;-40
2022/07/29 05:35:50;;;;;;;5.72;1.15;;;16.70;99.90;;;;;;12416337;28;20127;-39
2022/07/29 05:41:52;;;;;;;4.18;1.20;;;16.60;99.90;;;;;;12426046;28;20141;-39
2022/07/29 05:47:54;;;;;;;3.75;1.20;;;16.60;99.90;;;;;;12422092;28;20124;-35
2022/07/29 05:53:56;;;;;;;5.45;1.08;;;16.70;99.90;;;;;;12424255;28;20111;-40
2022/07/29 05:59:58;;;;;;;4.60;1.00;;;16.70;99.90;;;;;;12409127;28;20054;-35
2022/07/29 06:05:59;;;;;;;6.10;1.20;;;16.80;99.90;;;;;;12425010;28;20061;-40
2022/07/29 06:12:02;;;;;;;4.70;1.00;;;16.90;99.90;;;;;;12422875;28;20406;-35
2022/07/29 06:18:08;;;;;;;4.00;1.08;;;17.10;99.90;;;;;;12416957;28;20054;-39
2022/07/29 06:24:12;;;;;;;8.27;1.10;;;17.10;99.90;;;;;;12414205;28;20046;-39
2022/07/29 06:30:15;;;;;;;3.83;1.00;;;17.20;99.90;;;;;;12406302;28;20050;-39
2022/07/29 06:36:17;;;;;;;2.80;0.95;;;17.30;99.90;;;;;;12423265;28;20058;-36
2022/07/29 06:42:19;;;;;;;5.75;1.23;;;17.50;99.90;;;;;;12416510;28;20498;-35
2022/07/29 06:48:21;;;;;;;8.30;1.20;;;17.60;99.90;;;;;;12411389;28;20402;-35
2022/07/29 06:54:24;;;;;;;5.32;1.48;;;17.70;99.90;;;;;;12419488;28;20081;-35
2022/07/29 07:00:26;;;;;;;4.10;1.15;;;17.80;99.90;;;;;;12422532;28;20112;-35
2022/07/29 07:06:27;;;;;;;3.83;1.05;;;18.00;99.90;;;;;;12420916;28;20395;-38
2022/07/29 07:12:29;;;;;;;5.65;1.23;;;18.20;99.90;;;;;;12427239;28;20107;-35
2022/07/29 07:18:31;;;;;;;9.82;1.23;;;18.20;99.90;;;;;;12432979;28;20058;-35
2022/07/29 07:24:33;;;;;;;2.80;1.00;;;18.30;99.90;;;;;;12419470;28;20050;-39
2022/07/29 07:30:35;;;;;;;6.15;1.10;;;18.40;99.90;;;;;;12418856;28;20073;-39
2022/07/29 07:36:37;;;;;;;9.57;1.27;;;18.50;99.90;;;;;;12435494;28;20123;-39
2022/07/29 07:42:40;;;;;;;6.22;1.20;;;18.60;99.90;;;;;;12424285;28;20060;-35
2022/07/29 07:48:44;;;;;;;7.80;1.40;;;18.60;99.90;;;;;;12433717;28;20098;-35
2022/07/29 07:54:46;;;;;;;3.10;1.33;;;18.70;99.90;;;;;;12426254;28;20047;-35
2022/07/29 08:00:47;;;;;;;5.30;1.35;;;18.80;99.90;;;;;;12424194;28;20055;-41
2022/07/29 08:06:50;;;;;;;5.93;1.08;;;19.00;99.90;;;;;;12432567;28;20552;-35
2022/07/29 08:12:52;;;;;;;8.65;1.80;;;19.10;99.90;;;;;;12417101;28;20050;-39
2022/07/29 08:18:56;;;;;;;3.95;1.40;;;19.10;99.90;;;;;;12408878;28;20050;-40
2022/07/29 08:24:58;;;;;;;4.43;1.13;;;19.10;99.90;;;;;;12426808;28;20095;-40
2022/07/29 08:31:00;;;;;;;4.35;1.20;;;19.10;99.90;;;;;;12437774;28;20111;-35
2022/07/29 08:37:01;;;;;;;3.85;1.27;;;19.10;99.90;;;;;;12412217;28;20528;-35
2022/07/29 08:43:07;;;;;;;5.22;1.10;;;19.20;99.90;;;;;;12426359;28;20149;-35
2022/07/29 08:49:09;;;;;;;8.60;1.67;;;19.50;99.90;;;;;;12416835;28;20053;-39
2022/07/29 08:55:12;;;;;;;5.85;1.42;;;19.80;99.90;;;;;;12435476;28;20475;-35
2022/07/29 09:01:21;;;;;;;3.10;1.25;;;19.90;99.90;;;;;;12436059;28;20049;-39
2022/07/29 09:07:23;;;;;;;5.95;1.30;;;19.90;99.90;;;;;;12437411;28;20145;-41
2022/07/29 09:13:35;;;;;;;7.68;1.30;;;19.80;99.90;;;;;;12404503;28;20630;-39
2022/07/29 09:19:37;;;;;;;3.97;1.20;;;20.10;99.90;;;;;;12427149;28;20053;-40
2022/07/29 09:25:46;;;;;;;5.88;1.13;;;20.50;99.90;;;;;;12426877;28;20471;-39
2022/07/29 09:31:50;;;;;;;8.15;1.38;;;20.80;99.90;;;;;;12437298;28;20181;-35
2022/07/29 09:37:52;;;;;;;6.70;1.40;;;21.00;99.90;;;;;;12433649;28;20060;-35
2022/07/29 09:43:58;;;;;;;6.18;1.35;;;21.30;99.90;;;;;;12436424;28;20550;-35
2022/07/29 09:50:00;;;;;;;10.00;1.40;;;21.40;99.90;;;;;;12433338;28;20501;-39
2022/07/29 09:56:03;;;;;;;5.25;1.17;;;21.50;99.90;;;;;;12417551;28;20061;-40
2022/07/29 10:02:15;;;;;;;4.72;1.20;;;21.60;99.90;;;;;;12411332;28;20072;-35
2022/07/29 10:08:27;;;;;;;7.07;1.60;;;21.80;99.90;;;;;;12427957;28;20478;-39
2022/07/29 10:14:31;;;;;;;5.72;1.50;;;22.20;99.90;;;;;;12427655;28;20187;-40
2022/07/29 10:20:33;;;;;;;7.65;1.48;;;22.10;99.90;;;;;;12419729;28;20050;-39
2022/07/29 10:26:36;;;;;;;9.27;1.77;;;21.90;99.90;;;;;;12433649;28;20050;-40
2022/07/29 10:33:08;;;;;;;5.78;1.50;;;21.70;99.90;;;;;;12402194;28;20052;-39
2022/07/29 10:39:29;;;;;;;10.38;1.90;;;21.50;99.90;;;;;;12423337;28;20124;-36
2022/07/29 10:45:49;;;;;;;6.28;1.50;;;21.50;99.90;;;;;;12419483;28;20506;-39
2022/07/29 10:51:57;;;;;;;4.82;1.42;;;21.50;99.90;;;;;;12414935;28;20069;-35
2022/07/29 10:58:22;;;;;;;3.22;1.42;;;21.60;99.90;;;;;;12419033;28;20081;-35
2022/07/29 11:04:45;;;;;;;8.65;1.70;;;21.70;99.90;;;;;;12430138;28;20046;-39
2022/07/29 11:10:51;;;;;;;3.83;2.10;;;21.80;99.90;;;;;;12439839;28;20048;-35
2022/07/29 11:17:04;;;;;;;8.23;1.95;;;21.80;99.90;;;;;;12442899;28;20557;-39
2022/07/29 11:23:27;;;;;;;6.13;2.38;;;21.90;99.90;;;;;;12416129;28;20486;-38
2022/07/29 11:29:40;;;;;;;7.40;3.05;;;21.90;99.90;;;;;;12420471;28;20061;-39
2022/07/29 11:36:07;;;;;;;5.93;2.63;;;21.80;99.90;;;;;;12410001;28;20085;-39
2022/07/29 11:42:20;;;;;;;;;;;21.90;99.90;;;;;;12419430;28;20192;-35
2022/07/29 11:48:35;;;;;;;5.90;2.30;;;22.00;99.90;;;;;;12430897;28;19922;-41
2022/07/29 11:54:39;;;;;;;5.68;2.22;;;22.00;99.90;;;;;;12417907;28;20396;-39
2022/07/29 12:01:01;;;;;;;5.53;2.03;;;22.00;99.90;;;;;;12440690;28;20057;-40
2022/07/29 12:07:33;;;;;;;5.32;1.70;;;22.00;99.90;;;;;;12437357;28;20053;-35
2022/07/29 12:13:39;;;;;;;12.20;1.90;;;22.10;99.90;;;;;;12435394;28;20062;-35
2022/07/29 12:19:44;;;;;;;5.78;1.25;;;22.10;99.90;;;;;;12435592;28;20200;-35
2022/07/29 12:25:46;;;;;;;5.28;1.52;;;22.20;99.90;;;;;;12435795;28;20046;-40
2022/07/29 12:31:54;;;;;;;8.10;1.50;;;22.40;99.90;;;;;;12420024;28;20046;-39
2022/07/29 12:37:58;;;;;;;5.63;1.50;;;22.20;99.90;;;;;;12438056;28;20049;-35
2022/07/29 12:44:02;;;;;;;6.20;1.50;;;22.10;99.90;;;;;;12426418;28;20438;-35
2022/07/29 12:50:09;;;;;;;6.50;1.48;;;22.20;99.90;;;;;;12422718;28;20100;-40
2022/07/29 12:56:16;;;;;;;9.20;1.65;;;22.30;99.90;;;;;;12382852;28;20061;-35
2022/07/29 13:02:39;;;;;;;5.88;1.58;;;22.40;99.90;;;;;;12432880;28;20057;-35
2022/07/29 13:08:59;;;;;;;9.75;1.80;;;23.20;99.90;;;;;;12419893;28;20108;-35
2022/07/29 13:15:15;;;;;;;8.32;2.05;;;23.50;99.90;;;;;;12421525;28;20108;-41
2022/07/29 13:21:17;;;;;;;12.75;2.03;;;23.70;99.90;;;;;;12424105;28;20058;-35
2022/07/29 13:27:22;;;;;;;6.65;1.95;;;23.90;99.90;;;;;;12418398;28;20054;-36
2022/07/29 13:33:24;;;;;;;7.28;1.60;;;24.30;99.90;;;;;;12414591;28;20085;-40
2022/07/29 13:39:26;;;;;;;7.97;2.13;;;24.40;99.90;;;;;;12430165;28;20046;-40
2022/07/29 13:45:27;;;;;;;10.10;2.22;;;23.90;99.90;;;;;;12423076;28;20524;-39
2022/07/29 13:51:29;;;;;;;5.57;2.08;;;23.40;99.90;;;;;;12431245;28;20049;-40
2022/07/29 13:57:31;;;;;;;7.05;1.90;;;23.30;99.90;;;;;;12413931;28;20066;-35
2022/07/29 14:03:33;;;;;;;8.55;1.83;;;23.20;99.90;;;;;;12415496;28;20095;-40
2022/07/29 14:09:35;;;;;;;3.97;1.60;;;23.10;99.90;;;;;;12405700;28;20057;-35
2022/07/29 14:15:42;;;;;;;6.50;2.42;;;23.20;99.90;;;;;;12404328;28;20185;-39
2022/07/29 14:21:45;;;;;;;5.25;1.90;;;23.30;99.90;;;;;;12391790;28;20133;-39
2022/07/29 14:27:47;;;;;;;9.00;2.58;;;23.20;99.90;;;;;;12425275;28;20456;-37
2022/07/29 14:33:49;;;;;;;8.23;1.98;;;23.00;99.90;;;;;;12407363;28;20172;-39
2022/07/29 14:39:50;;;;;;;5.68;2.42;;;22.80;99.90;;;;;;12433669;28;20096;-39
2022/07/29 14:45:52;;;;;;;4.65;2.13;;;22.60;99.90;;;;;;12426916;28;20127;-39
2022/07/29 14:52:02;;;;;;;7.28;2.17;;;22.60;99.90;;;;;;12434802;28;20661;-35
2022/07/29 14:58:03;;;;;;;11.23;2.35;;;22.60;99.90;;;;;;12418464;28;20054;-35
2022/07/29 15:04:13;;;;;;;9.10;2.08;;;22.60;99.90;;;;;;12424989;28;20297;-40
2022/07/29 15:10:15;;;;;;;9.23;2.30;;;22.60;99.90;;;;;;12417968;28;20415;-36
2022/07/29 15:16:17;;;;;;;11.30;2.17;;;22.50;99.90;;;;;;12422829;28;20537;-35
2022/07/29 15:22:19;;;;;;;7.97;2.33;;;22.40;99.90;;;;;;12437398;28;20073;-35
2022/07/29 15:28:21;;;;;;;66.82;6.28;;;22.30;99.90;;;;;;12426961;28;20104;-39
2022/07/29 15:34:23;;;;;;;8.38;2.30;;;22.30;99.90;;;;;;12421649;28;20080;-40
2022/07/29 15:40:25;;;;;;;10.95;2.00;;;22.30;99.90;;;;;;12431671;28;20089;-39
2022/07/29 15:52:47;;;;;;;6.80;1.90;;;22.10;99.90;;;;;;12431360;28;20344;-35
2022/07/29 15:58:49;;;;;;;11.07;2.45;;;22.10;99.90;;;;;;12433469;28;20078;-35
2022/07/29 16:04:51;;;;;;;8.07;2.08;;;22.00;99.90;;;;;;12417139;28;20078;-35
2022/07/29 16:10:53;;;;;;;11.35;2.28;;;22.00;99.90;;;;;;12436713;28;20080;-35
2022/07/29 16:16:55;;;;;;;5.13;2.00;;;22.00;99.90;;;;;;12427541;28;20092;-40
2022/07/29 16:22:58;;;;;;;11.60;2.60;;;22.00;99.90;;;;;;12429973;28;20093;-36
2022/07/29 16:28:59;;;;;;;10.43;2.30;;;21.90;99.90;;;;;;12420246;28;20096;-39
2022/07/29 16:35:03;;;;;;;6.22;2.13;;;21.80;99.90;;;;;;12403232;28;20141;-35
2022/07/29 16:41:05;;;;;;;7.97;2.25;;;21.70;99.90;;;;;;12426773;28;20081;-39
2022/07/29 16:47:07;;;;;;;8.30;2.70;;;21.70;99.90;;;;;;12423246;28;20142;-36
2022/07/29 16:53:10;;;;;;;8.35;2.40;;;21.50;99.90;;;;;;12412087;28;20424;-39
2022/07/29 16:59:12;;;;;;;6.15;2.35;;;21.30;99.90;;;;;;12419721;28;20100;-40
2022/07/29 17:05:14;;;;;;;5.93;2.50;;;21.10;99.90;;;;;;12422856;28;20045;-39
2022/07/29 17:11:16;;;;;;;8.27;2.67;;;20.90;99.90;;;;;;12423044;28;20041;-39
2022/07/29 17:17:18;;;;;;;8.68;2.45;;;20.80;99.90;;;;;;12429828;28;20463;-40
2022/07/29 17:23:40;;;;;;;7.50;2.90;;;20.70;99.90;;;;;;12423628;28;20136;-40
2022/07/29 17:29:42;;;;;;;47.13;5.57;;;20.60;99.90;;;;;;12426827;28;20107;-38
2022/07/29 17:42:05;;;;;;;6.20;3.10;;;20.60;99.90;;;;;;12439406;28;20062;-39
2022/07/29 17:48:07;;;;;;;6.22;2.60;;;20.50;99.90;;;;;;12411799;28;20061;-40
2022/07/29 17:54:09;;;;;;;13.95;4.40;;;20.50;99.90;;;;;;12421171;28;20042;-35
2022/07/29 18:00:11;;;;;;;9.75;3.67;;;20.20;99.90;;;;;;12423716;28;20054;-35
2022/07/29 18:06:12;;;;;;;5.97;3.20;;;19.90;99.90;;;;;;12413516;28;20115;-35
2022/07/29 18:12:14;;;;;;;8.23;3.72;;;19.40;99.90;;;;;;12431844;28;20133;-35
2022/07/29 18:18:17;;;;;;;5.63;3.33;;;19.10;99.90;;;;;;12425423;28;20460;-35
2022/07/29 18:24:19;;;;;;;7.53;3.80;;;18.70;99.90;;;;;;12411438;28;20074;-39
2022/07/29 18:30:20;;;;;;;14.60;4.80;;;18.60;99.90;;;;;;12422948;28;20058;-35
2022/07/29 18:36:22;;;;;;;12.30;4.10;;;18.70;99.90;;;;;;12411695;28;20061;-40
2022/07/29 18:42:24;;;;;;;10.90;4.28;;;18.50;99.90;;;;;;12411158;28;20065;-36
2022/07/29 18:48:26;;;;;;;9.18;4.78;;;18.40;99.90;;;;;;12430370;28;20078;-38
2022/07/29 18:54:30;;;;;;;8.30;4.50;;;18.20;99.90;;;;;;12409791;28;20054;-40
2022/07/29 19:00:31;;;;;;;5.70;3.33;;;18.10;99.90;;;;;;12419323;28;20054;-38
2022/07/29 19:06:33;;;;;;;8.55;4.25;;;17.90;99.90;;;;;;12413368;28;20058;-35
2022/07/29 19:12:35;;;;;;;8.95;3.97;;;17.70;99.90;;;;;;12409337;28;20095;-39
2022/07/29 19:18:37;;;;;;;10.13;4.95;;;17.70;99.90;;;;;;12422781;28;20425;-38
2022/07/29 19:24:40;;;;;;;9.65;4.40;;;17.50;99.90;;;;;;12415192;28;20050;-35
2022/07/29 19:30:41;;;;;;;9.68;4.53;;;17.70;99.90;;;;;;12432837;28;20157;-38
2022/07/29 19:36:43;;;;;;;9.73;5.05;;;17.70;99.90;;;;;;12421878;28;20121;-38
2022/07/29 19:42:50;;;;;;;10.40;5.03;;;17.70;99.90;;;;;;12430472;28;20498;-39
2022/07/29 19:48:52;;;;;;;7.50;4.00;;;17.60;99.90;;;;;;12416223;28;20069;-35
2022/07/29 19:54:54;;;;;;;8.13;4.43;;;17.50;99.90;;;;;;12429168;28;20153;-39
2022/07/29 20:00:56;;;;;;;10.70;5.10;;;17.40;99.90;;;;;;12430426;28;20049;-39
2022/07/29 20:06:59;;;;;;;10.23;5.00;;;17.20;99.90;;;;;;12415677;28;20046;-35
2022/07/29 20:13:02;;;;;;;12.77;4.72;;;17.20;99.90;;;;;;12414346;28;20050;-35
2022/07/29 20:19:04;;;;;;;9.15;5.20;;;17.10;99.90;;;;;;12429251;28;20148;-38
2022/07/29 20:25:08;;;;;;;10.60;5.30;;;17.20;99.90;;;;;;12411967;28;20050;-35
2022/07/29 20:31:10;;;;;;;9.15;5.75;;;17.10;99.90;;;;;;12418186;28;20460;-39
2022/07/29 20:37:15;;;;;;;6.97;4.63;;;17.10;99.90;;;;;;12418184;28;20501;-35
2022/07/29 20:43:16;;;;;;;9.10;4.47;;;17.20;99.90;;;;;;12423204;28;20491;-38
2022/07/29 20:49:18;;;;;;;10.63;4.65;;;17.10;99.90;;;;;;12413778;28;20058;-34
2022/07/29 20:55:20;;;;;;;8.00;4.88;;;17.10;99.90;;;;;;12432511;28;20082;-35
2022/07/29 21:01:22;;;;;;;9.90;5.05;;;17.00;99.90;;;;;;12421060;28;20509;-34
2022/07/29 21:07:24;;;;;;;7.47;4.10;;;17.00;99.90;;;;;;12413203;28;20414;-38
2022/07/29 21:13:26;;;;;;;7.90;4.28;;;16.90;99.90;;;;;;12423809;28;20136;-35
2022/07/29 21:19:28;;;;;;;7.28;4.40;;;16.90;99.90;;;;;;12418923;28;20140;-38
2022/07/29 21:25:29;;;;;;;8.95;4.78;;;16.90;99.90;;;;;;12409509;28;20046;-34
2022/07/29 21:31:31;;;;;;;8.00;4.43;;;17.00;99.90;;;;;;12392150;28;20453;-40
2022/07/29 21:37:33;;;;;;;8.68;5.15;;;17.00;99.90;;;;;;12414496;28;20053;-35
2022/07/29 21:43:35;;;;;;;9.65;4.40;;;16.70;99.90;;;;;;12422055;28;20119;-39
2022/07/29 21:49:42;;;;;;;9.57;5.30;;;16.70;99.90;;;;;;12425090;28;20407;-34
2022/07/29 21:55:46;;;;;;;6.50;4.60;;;16.60;99.90;;;;;;12427348;28;20053;-39
2022/07/29 22:01:48;;;;;;;13.05;5.45;;;16.70;99.90;;;;;;12401006;28;20078;-39
2022/07/29 22:07:50;;;;;;;7.68;4.57;;;16.90;99.90;;;;;;12408240;28;20053;-39
2022/07/29 22:13:57;;;;;;;7.88;4.97;;;16.90;99.90;;;;;;12419918;28;20077;-39
2022/07/29 22:19:59;;;;;;;8.50;4.72;;;16.90;99.90;;;;;;12416508;28;20282;-35
2022/07/29 22:26:02;;;;;;;9.10;5.22;;;17.10;99.90;;;;;;12421814;28;20045;-35
2022/07/29 22:32:04;;;;;;;7.30;5.27;;;17.00;99.90;;;;;;12413383;28;20097;-38
2022/07/29 22:38:06;;;;;;;7.10;5.00;;;17.00;99.90;;;;;;12417981;28;20760;-35
2022/07/29 22:44:08;;;;;;;10.52;5.40;;;16.90;99.90;;;;;;12419032;28;20050;-35
2022/07/29 22:50:10;;;;;;;8.52;5.22;;;17.00;99.90;;;;;;12413445;28;20177;-34
2022/07/29 22:56:12;;;;;;;8.82;6.07;;;17.00;99.90;;;;;;12443682;28;20426;-39
2022/07/29 23:02:14;;;;;;;7.70;5.15;;;17.10;99.90;;;;;;12428755;28;20103;-34
2022/07/29 23:08:15;;;;;;;9.40;5.10;;;17.10;99.90;;;;;;12417179;28;20491;-35
2022/07/29 23:14:17;;;;;;;6.47;5.13;;;17.10;99.90;;;;;;12440338;28;20091;-39
2022/07/29 23:20:19;;;;;;;7.57;5.07;;;17.10;99.90;;;;;;12434841;28;20077;-39
2022/07/29 23:26:21;;;;;;;10.15;5.88;;;17.10;99.90;;;;;;12427300;28;20112;-38
2022/07/29 23:32:22;;;;;;;9.55;5.30;;;17.10;99.90;;;;;;12423912;28;20104;-40
2022/07/29 23:38:24;;;;;;;8.43;5.70;;;16.90;99.90;;;;;;12424279;28;20050;-34
2022/07/29 23:44:26;;;;;;;9.95;6.20;;;16.90;99.90;;;;;;12422316;28;20081;-39
2022/07/29 23:50:27;;;;;;;7.63;6.18;;;16.80;99.90;;;;;;12440705;28;20103;-39
2022/07/29 23:56:29;;;;;;;11.27;7.00;;;16.90;99.90;;;;;;12433256;28;20487;-34
